Time;durP1;ratioP1;P1;durP2;ratioP2;P2;SDS_P1;SDS_P2;PMS_P1;PMS_P2;Temp;Humidity;BMP_temperature;BMP_pressure;BME280_temperature;BME280_humidity;BME280_pressure;Samples;Min_cycle;Max_cycle;Signal;HPM_P1;HPM_P2
2021/03/07 00:02:25;;;;;;;52.45;29.92;;;-1.60;99.90;;;;;;5096643;28;20027;-68
2021/03/07 00:04:51;;;;;;;53.95;30.70;;;-1.60;99.90;;;;;;5095243;28;20020;-68
2021/03/07 00:07:17;;;;;;;57.03;30.08;;;-1.60;99.90;;;;;;5096129;28;20028;-68
2021/03/07 00:09:42;;;;;;;50.78;29.20;;;-1.60;99.90;;;;;;5095999;28;20039;-67
2021/03/07 00:12:08;;;;;;;54.78;30.67;;;-1.70;99.90;;;;;;5096253;28;20028;-67
2021/03/07 00:14:33;;;;;;;56.78;30.67;;;-1.70;99.90;;;;;;5096169;28;20067;-67
2021/03/07 00:16:59;;;;;;;50.70;30.75;;;-1.80;99.90;;;;;;5096413;28;20464;-67
2021/03/07 00:19:25;;;;;;;52.17;30.50;;;-1.80;99.90;;;;;;5096276;28;20469;-67
2021/03/07 00:21:50;;;;;;;55.65;30.95;;;-1.80;99.90;;;;;;5096355;28;20502;-67
2021/03/07 00:24:16;;;;;;;55.92;31.98;;;-1.80;99.90;;;;;;5095758;28;20028;-67
2021/03/07 00:26:41;;;;;;;50.85;31.17;;;-1.80;99.90;;;;;;5095955;28;20088;-68
2021/03/07 00:29:07;;;;;;;58.28;32.60;;;-1.80;99.90;;;;;;5096190;28;20024;-67
2021/03/07 00:31:33;;;;;;;59.05;32.33;;;-1.80;99.90;;;;;;5095627;28;20024;-67
2021/03/07 00:33:58;;;;;;;54.72;31.95;;;-1.80;99.90;;;;;;5095808;28;20071;-67
2021/03/07 00:36:24;;;;;;;48.50;30.23;;;-1.80;99.90;;;;;;5095832;28;20020;-67
2021/03/07 00:38:49;;;;;;;52.75;30.35;;;-1.90;99.90;;;;;;5095616;28;20041;-68
2021/03/07 00:41:15;;;;;;;53.40;32.45;;;-1.90;99.90;;;;;;5095841;28;20107;-67
2021/03/07 00:43:40;;;;;;;80.03;44.80;;;-1.90;99.90;;;;;;5095901;28;20089;-67
2021/03/07 00:46:07;;;;;;;66.07;38.72;;;-1.90;99.90;;;;;;5095821;28;20020;-67
2021/03/07 00:48:33;;;;;;;70.63;39.67;;;-1.90;99.90;;;;;;5095535;28;20031;-67
2021/03/07 00:50:59;;;;;;;69.05;38.90;;;-1.90;99.90;;;;;;5095818;28;20032;-67
2021/03/07 00:53:24;;;;;;;64.65;36.10;;;-2.00;99.90;;;;;;5095079;28;20032;-67
2021/03/07 00:55:50;;;;;;;59.72;33.60;;;-2.00;99.90;;;;;;5095672;28;20030;-67
2021/03/07 00:58:15;;;;;;;60.17;33.75;;;-2.00;99.90;;;;;;5094127;28;20034;-67
2021/03/07 01:00:45;;;;;;;60.25;32.50;;;-2.00;99.90;;;;;;5093882;28;20032;-67
2021/03/07 01:03:11;;;;;;;55.92;33.88;;;-2.00;99.90;;;;;;5094990;28;20016;-67
2021/03/07 01:05:37;;;;;;;59.05;33.47;;;-2.00;99.90;;;;;;5095404;28;20035;-67
2021/03/07 01:08:03;;;;;;;56.78;31.85;;;-2.00;99.90;;;;;;5095388;28;20023;-68
2021/03/07 01:10:37;;;;;;;53.88;32.75;;;-2.10;99.90;;;;;;5095355;28;20373;-67
2021/03/07 01:13:05;;;;;;;60.05;32.72;;;-2.10;99.90;;;;;;5094018;28;20036;-68
2021/03/07 01:15:32;;;;;;;59.55;32.75;;;-2.10;99.90;;;;;;5094955;28;20473;-68
2021/03/07 01:17:59;;;;;;;53.97;31.27;;;-2.10;99.90;;;;;;5093795;28;20016;-68
2021/03/07 01:20:25;;;;;;;58.15;33.10;;;-2.10;99.90;;;;;;5094852;28;20024;-68
2021/03/07 01:22:50;;;;;;;55.30;32.28;;;-2.20;99.90;;;;;;5095122;28;20366;-67
2021/03/07 01:25:19;;;;;;;50.65;31.00;;;-2.20;99.90;;;;;;5095102;28;20052;-67
2021/03/07 01:27:45;;;;;;;55.25;30.02;;;-2.20;99.90;;;;;;5093255;28;20020;-67
2021/03/07 01:30:13;;;;;;;51.63;30.88;;;-2.30;99.90;;;;;;5094744;28;20420;-67
2021/03/07 01:32:38;;;;;;;56.38;31.73;;;-2.30;99.90;;;;;;5094434;28;20020;-67
2021/03/07 01:35:05;;;;;;;52.90;30.63;;;-2.30;99.90;;;;;;5093704;28;20028;-68
2021/03/07 01:37:30;;;;;;;52.58;30.02;;;-2.30;99.90;;;;;;5093456;28;20036;-67
2021/03/07 01:39:56;;;;;;;50.50;30.90;;;-2.30;99.90;;;;;;5094228;28;20131;-67
2021/03/07 01:42:22;;;;;;;49.95;29.38;;;-2.30;99.90;;;;;;5093594;28;20020;-67
2021/03/07 01:44:48;;;;;;;51.97;28.63;;;-2.30;99.90;;;;;;5094479;28;20028;-68
2021/03/07 01:47:20;;;;;;;51.75;30.75;;;-2.30;99.90;;;;;;5094664;28;20031;-67
2021/03/07 01:49:45;;;;;;;55.63;30.67;;;-2.30;99.90;;;;;;5094092;28;20032;-68
2021/03/07 01:52:11;;;;;;;51.58;30.50;;;-2.30;99.90;;;;;;5094304;28;20039;-67
2021/03/07 01:54:36;;;;;;;47.15;29.00;;;-2.30;99.90;;;;;;5092747;28;20096;-67
2021/03/07 01:57:04;;;;;;;49.15;30.75;;;-2.30;99.90;;;;;;5094498;28;20110;-67
2021/03/07 01:59:32;;;;;;;47.88;28.85;;;-2.40;99.90;;;;;;5094461;28;20441;-68
2021/03/07 02:01:57;;;;;;;49.40;29.15;;;-2.40;99.90;;;;;;5094527;28;20042;-67
2021/03/07 02:04:23;;;;;;;50.10;28.83;;;-2.40;99.90;;;;;;5093888;28;20380;-67
2021/03/07 02:06:48;;;;;;;54.33;30.65;;;-2.40;99.90;;;;;;5094483;28;20028;-68
2021/03/07 02:09:16;;;;;;;50.00;30.25;;;-2.40;99.90;;;;;;5093942;28;20036;-67
2021/03/07 02:11:43;;;;;;;53.47;30.73;;;-2.40;99.90;;;;;;5093603;28;20024;-67
2021/03/07 02:14:09;;;;;;;55.28;31.73;;;-2.40;99.90;;;;;;5094292;28;20012;-68
2021/03/07 02:16:36;;;;;;;48.63;29.67;;;-2.40;99.90;;;;;;5093923;28;20080;-67
2021/03/07 02:19:04;;;;;;;48.58;29.52;;;-2.50;99.90;;;;;;5093907;28;20019;-67
2021/03/07 02:21:36;;;;;;;54.28;31.98;;;-2.50;99.90;;;;;;5094129;28;20576;-67
2021/03/07 02:24:07;;;;;;;42.85;22.80;;;-2.50;99.90;;;;;;5094125;28;20028;-67
2021/03/07 02:26:39;;;;;;;54.50;30.92;;;-2.50;99.90;;;;;;5093514;28;20012;-68
2021/03/07 02:29:06;;;;;;;51.10;30.02;;;-2.50;99.90;;;;;;5093766;28;20052;-68
2021/03/07 02:31:37;;;;;;;49.00;31.42;;;-2.50;99.90;;;;;;5094013;28;20020;-67
2021/03/07 02:34:10;;;;;;;50.42;30.50;;;-2.60;99.90;;;;;;5093710;28;20437;-67
2021/03/07 02:36:48;;;;;;;52.90;30.20;;;-2.60;99.90;;;;;;5093646;28;20468;-67
2021/03/07 02:39:16;;;;;;;54.88;29.77;;;-2.60;99.90;;;;;;5093560;28;20094;-67
2021/03/07 02:41:43;;;;;;;50.40;28.92;;;-2.60;99.90;;;;;;5093604;28;20017;-67
2021/03/07 02:44:13;;;;;;;52.85;30.35;;;-2.70;99.90;;;;;;5093597;28;20023;-67
2021/03/07 02:46:40;;;;;;;54.90;30.80;;;-2.70;99.90;;;;;;5093613;28;20016;-67
2021/03/07 02:49:10;;;;;;;51.78;29.83;;;-2.70;99.90;;;;;;5093306;28;20043;-67
2021/03/07 02:51:37;;;;;;;54.13;30.83;;;-2.70;99.90;;;;;;5093762;28;20028;-67
2021/03/07 02:54:06;;;;;;;54.88;31.23;;;-2.80;99.90;;;;;;5093760;28;20028;-67
2021/03/07 02:56:35;;;;;;;58.40;30.63;;;-2.70;99.90;;;;;;5093479;28;20111;-67
2021/03/07 02:59:05;;;;;;;51.47;29.80;;;-2.80;99.90;;;;;;5093467;28;20035;-68
2021/03/07 03:01:32;;;;;;;57.53;31.33;;;-2.70;99.90;;;;;;5093628;28;20031;-67
2021/03/07 03:04:01;;;;;;;54.20;29.83;;;-2.80;99.90;;;;;;5093654;28;20027;-67
2021/03/07 03:06:28;;;;;;;55.70;31.45;;;-2.80;99.90;;;;;;5093670;28;20016;-67
2021/03/07 03:08:57;;;;;;;54.63;30.52;;;-2.80;99.90;;;;;;5093667;28;20016;-67
2021/03/07 03:11:26;;;;;;;54.80;30.40;;;-2.80;99.90;;;;;;5093359;28;20162;-67
2021/03/07 03:13:52;;;;;;;53.88;32.42;;;-2.80;99.90;;;;;;5092307;28;20024;-67
2021/03/07 03:16:24;;;;;;;59.72;32.30;;;-2.80;99.90;;;;;;5091875;28;20035;-68
2021/03/07 03:18:50;;;;;;;60.03;34.33;;;-2.80;99.90;;;;;;5093257;28;20384;-67
2021/03/07 03:21:16;;;;;;;55.85;33.78;;;-2.80;99.90;;;;;;5093488;28;20144;-67
2021/03/07 03:23:42;;;;;;;62.13;35.97;;;-2.80;99.90;;;;;;5095344;28;20020;-67
2021/03/07 03:26:09;;;;;;;65.22;35.42;;;-2.80;99.90;;;;;;5096861;28;20027;-67
2021/03/07 03:28:37;;;;;;;64.82;37.17;;;-2.70;99.90;;;;;;5097353;28;20017;-67
2021/03/07 03:31:03;;;;;;;60.47;35.35;;;-2.60;99.90;;;;;;5097036;28;20411;-67
2021/03/07 03:33:29;;;;;;;63.15;35.53;;;-2.60;99.90;;;;;;5097272;28;20034;-68
2021/03/07 03:35:55;;;;;;;59.83;33.95;;;-2.70;99.90;;;;;;5096974;28;20081;-67
2021/03/07 03:38:26;;;;;;;56.03;33.10;;;-2.70;99.90;;;;;;5097175;28;20036;-67
2021/03/07 03:40:56;;;;;;;58.92;32.88;;;-2.70;99.90;;;;;;5096486;28;20044;-68
2021/03/07 03:43:22;;;;;;;57.55;33.10;;;-2.80;99.90;;;;;;5095687;28;20031;-67
2021/03/07 03:45:50;;;;;;;58.13;33.53;;;-2.80;99.90;;;;;;5096490;28;20088;-67
2021/03/07 03:48:21;;;;;;;61.03;35.63;;;-2.90;99.90;;;;;;5097011;28;20024;-67
2021/03/07 03:50:47;;;;;;;61.40;35.53;;;-2.90;99.90;;;;;;5095494;28;20031;-67
2021/03/07 03:53:16;;;;;;;68.93;38.00;;;-2.90;99.90;;;;;;5096641;28;20464;-67
2021/03/07 03:55:46;;;;;;;67.90;37.25;;;-2.90;99.90;;;;;;5096652;28;20081;-67
2021/03/07 03:58:14;;;;;;;70.70;39.65;;;-2.90;99.90;;;;;;5096540;28;20023;-67
2021/03/07 04:00:42;;;;;;;63.58;38.22;;;-2.80;99.90;;;;;;5096708;28;20015;-68
2021/03/07 04:03:12;;;;;;;60.67;37.03;;;-2.80;99.90;;;;;;5096702;28;20102;-67
2021/03/07 04:05:39;;;;;;;69.65;38.90;;;-2.80;99.90;;;;;;5096378;28;20024;-67
2021/03/07 04:08:05;;;;;;;67.32;39.15;;;-2.70;99.90;;;;;;5096479;28;20047;-67
2021/03/07 04:10:31;;;;;;;59.65;36.03;;;-2.70;99.90;;;;;;5096482;28;20522;-68
2021/03/07 04:12:59;;;;;;;64.68;36.08;;;-2.80;99.90;;;;;;5096437;28;20036;-67
2021/03/07 04:15:27;;;;;;;61.10;36.08;;;-2.80;99.90;;;;;;5096665;28;20024;-67
2021/03/07 04:17:53;;;;;;;63.08;35.33;;;-2.80;99.90;;;;;;5096019;28;20035;-67
2021/03/07 04:20:20;;;;;;;56.42;34.40;;;-2.90;99.90;;;;;;5095040;28;20047;-68
2021/03/07 04:22:48;;;;;;;68.50;38.53;;;-3.00;99.90;;;;;;5096490;28;20093;-67
2021/03/07 04:25:15;;;;;;;66.93;37.83;;;-3.00;99.90;;;;;;5095023;28;20031;-67
2021/03/07 04:27:41;;;;;;;63.55;37.45;;;-3.00;99.90;;;;;;5094965;28;20013;-67
2021/03/07 04:30:07;;;;;;;64.72;36.08;;;-3.00;99.90;;;;;;5094918;28;20032;-67
2021/03/07 04:32:34;;;;;;;69.18;39.38;;;-3.10;99.90;;;;;;5095708;28;20031;-67
2021/03/07 04:35:01;;;;;;;65.63;37.92;;;-3.10;99.90;;;;;;5096306;28;20044;-67
2021/03/07 04:37:27;;;;;;;72.63;39.13;;;-3.10;99.90;;;;;;5095686;28;20024;-68
2021/03/07 04:39:53;;;;;;;71.50;38.53;;;-3.10;99.90;;;;;;5095676;28;20123;-67
2021/03/07 04:42:19;;;;;;;72.70;41.92;;;-3.10;99.90;;;;;;5095612;28;20062;-67
2021/03/07 04:44:45;;;;;;;68.43;39.83;;;-3.20;99.90;;;;;;5096149;28;20016;-67
2021/03/07 04:47:11;;;;;;;82.90;43.88;;;-3.20;99.90;;;;;;5096133;28;20061;-67
2021/03/07 04:49:37;;;;;;;70.07;42.20;;;-3.20;99.90;;;;;;5095986;28;20457;-67
2021/03/07 04:52:03;;;;;;;75.00;43.95;;;-3.20;99.90;;;;;;5095935;28;20032;-67
2021/03/07 04:54:28;;;;;;;77.68;43.70;;;-3.20;99.90;;;;;;5095682;28;20016;-67
2021/03/07 04:56:54;;;;;;;82.28;43.38;;;-3.30;99.90;;;;;;5095859;28;20484;-67
2021/03/07 04:59:19;;;;;;;79.88;43.20;;;-3.30;99.90;;;;;;5094701;28;20028;-67
2021/03/07 05:01:45;;;;;;;79.82;45.90;;;-3.30;99.90;;;;;;5095200;28;20102;-67
2021/03/07 05:04:10;;;;;;;82.70;46.05;;;-3.30;99.90;;;;;;5095701;28;20028;-67
2021/03/07 05:06:39;;;;;;;77.97;44.90;;;-3.30;99.90;;;;;;5095630;28;20034;-67
2021/03/07 05:09:07;;;;;;;78.78;44.25;;;-3.30;99.90;;;;;;5095313;28;20073;-67
2021/03/07 05:11:33;;;;;;;75.30;42.33;;;-3.30;99.90;;;;;;5095292;28;20024;-68
2021/03/07 05:13:59;;;;;;;70.25;40.80;;;-3.30;99.90;;;;;;5095263;28;20077;-67
2021/03/07 05:16:26;;;;;;;77.25;42.05;;;-3.30;99.90;;;;;;5095502;28;20095;-67
2021/03/07 05:18:52;;;;;;;74.30;42.28;;;-3.30;99.90;;;;;;5094003;28;20137;-67
2021/03/07 05:21:18;;;;;;;80.45;42.80;;;-3.40;99.90;;;;;;5093575;28;20028;-67
2021/03/07 05:23:43;;;;;;;74.57;41.67;;;-3.40;99.90;;;;;;5093561;28;20030;-67
2021/03/07 05:26:09;;;;;;;76.55;40.17;;;-3.40;99.90;;;;;;5093514;28;20423;-67
2021/03/07 05:28:35;;;;;;;76.38;43.47;;;-3.50;99.90;;;;;;5094715;28;20054;-67
2021/03/07 05:31:02;;;;;;;74.93;41.60;;;-3.40;99.90;;;;;;5095003;28;20049;-67
2021/03/07 05:33:27;;;;;;;77.45;42.65;;;-3.40;99.90;;;;;;5095210;28;20380;-67
2021/03/07 05:35:53;;;;;;;76.20;40.95;;;-3.50;99.90;;;;;;5093676;28;20020;-67
2021/03/07 05:38:19;;;;;;;67.55;39.58;;;-3.50;99.90;;;;;;5095085;28;20039;-67
2021/03/07 05:40:45;;;;;;;75.20;42.33;;;-3.50;99.90;;;;;;5094337;28;20048;-67
2021/03/07 05:43:10;;;;;;;74.53;39.75;;;-3.50;99.90;;;;;;5094436;28;20187;-67
2021/03/07 05:45:36;;;;;;;80.53;44.75;;;-3.50;99.90;;;;;;5094222;28;20020;-67
2021/03/07 05:48:02;;;;;;;81.43;43.78;;;-3.50;99.90;;;;;;5094935;28;20487;-67
2021/03/07 05:50:28;;;;;;;79.53;43.45;;;-3.50;99.90;;;;;;5093390;28;20560;-67
2021/03/07 05:52:56;;;;;;;75.97;42.55;;;-3.50;99.90;;;;;;5094527;28;20020;-67
2021/03/07 05:55:24;;;;;;;77.03;41.78;;;-3.50;99.90;;;;;;5094810;28;20032;-67
2021/03/07 05:57:50;;;;;;;78.32;42.40;;;-3.50;99.90;;;;;;5094755;28;20022;-67
2021/03/07 06:00:17;;;;;;;74.85;40.88;;;-3.50;99.90;;;;;;5094636;28;20418;-67
2021/03/07 06:02:43;;;;;;;78.07;42.05;;;-3.50;99.90;;;;;;5094399;28;20142;-67
2021/03/07 06:05:10;;;;;;;79.28;41.47;;;-3.50;99.90;;;;;;5094612;28;20028;-67
2021/03/07 06:07:35;;;;;;;86.35;46.15;;;-3.50;99.90;;;;;;5094337;28;20016;-67
2021/03/07 06:10:21;;;;;;;75.78;44.08;;;-3.50;99.90;;;;;;5092746;28;20031;-67
2021/03/07 06:13:05;;;;;;;74.25;40.97;;;-3.50;99.90;;;;;;5094224;28;20023;-67
2021/03/07 06:15:31;;;;;;;72.55;41.25;;;-3.40;99.90;;;;;;5094443;28;20035;-67
2021/03/07 06:17:57;;;;;;;73.00;40.45;;;-3.30;99.90;;;;;;5094215;28;20049;-67
2021/03/07 06:20:25;;;;;;;82.35;44.30;;;-3.30;99.90;;;;;;5094061;28;20412;-67
2021/03/07 06:22:54;;;;;;;76.30;42.33;;;-3.30;99.90;;;;;;5094367;28;20027;-67
2021/03/07 06:25:20;;;;;;;74.47;41.55;;;-3.20;99.90;;;;;;5094349;28;20012;-67
2021/03/07 06:27:46;;;;;;;71.00;42.33;;;-3.10;99.90;;;;;;5094292;28;20366;-67
2021/03/07 06:30:16;;;;;;;68.68;39.25;;;-2.90;99.90;;;;;;5094252;28;20035;-67
2021/03/07 06:32:49;;;;;;;67.25;38.22;;;-2.70;99.90;;;;;;5093957;28;20144;-67
2021/03/07 06:35:20;;;;;;;63.35;38.90;;;-2.80;99.90;;;;;;5094228;28;20103;-67
2021/03/07 06:38:07;;;;;;;62.70;35.90;;;-2.60;99.90;;;;;;5094130;28;20458;-67
2021/03/07 06:40:35;;;;;;;60.42;34.70;;;-2.20;99.90;;;;;;5093333;28;20048;-67
2021/03/07 06:43:04;;;;;;;64.95;35.28;;;-1.80;99.90;;;;;;5092297;28;20023;-67
2021/03/07 06:45:41;;;;;;;57.72;33.45;;;-1.10;99.90;;;;;;5092668;28;20368;-68
2021/03/07 06:48:07;;;;;;;51.72;28.50;;;-0.20;99.90;;;;;;5075656;28;20107;-68
2021/03/07 06:50:34;;;;;;;42.63;26.60;;;0.40;99.90;;;;;;5094027;28;20024;-68
2021/03/07 06:53:00;;;;;;;39.15;25.23;;;1.20;99.90;;;;;;5094015;28;20020;-67
2021/03/07 06:55:29;;;;;;;38.75;23.33;;;1.80;99.90;;;;;;5094002;28;20453;-68
2021/03/07 06:57:55;;;;;;;39.28;25.17;;;2.20;99.90;;;;;;5097038;28;20457;-68
2021/03/07 07:00:38;;;;;;;40.33;23.05;;;2.60;99.90;;;;;;5096973;28;20032;-68
2021/03/07 07:03:06;;;;;;;35.60;22.05;;;3.10;99.90;;;;;;5098177;28;20095;-68
2021/03/07 07:05:37;;;;;;;40.88;22.88;;;3.60;99.90;;;;;;5096633;28;20028;-68
2021/03/07 07:08:02;;;;;;;41.15;24.80;;;4.00;99.90;;;;;;5097741;28;20017;-68
2021/03/07 07:10:28;;;;;;;42.70;25.35;;;4.30;99.90;;;;;;5097446;28;20027;-68
2021/03/07 07:13:03;;;;;;;40.25;27.73;;;4.50;99.90;;;;;;5097661;28;20028;-67
2021/03/07 07:15:29;;;;;;;42.22;28.50;;;5.00;99.90;;;;;;5097376;28;20031;-68
2021/03/07 07:17:54;;;;;;;38.70;26.55;;;5.00;99.90;;;;;;5097602;28;20028;-68
2021/03/07 07:20:20;;;;;;;37.47;24.25;;;5.00;99.90;;;;;;5097733;28;20051;-68
2021/03/07 07:22:46;;;;;;;34.05;23.23;;;5.40;99.90;;;;;;5097234;28;20487;-68
2021/03/07 07:25:12;;;;;;;33.10;23.17;;;5.50;99.90;;;;;;5097756;28;20040;-68
2021/03/07 07:27:37;;;;;;;33.58;24.42;;;5.30;99.90;;;;;;5096250;28;20030;-69
2021/03/07 07:30:05;;;;;;;36.53;25.42;;;5.80;99.90;;;;;;5097656;28;20115;-68
2021/03/07 07:32:41;;;;;;;33.88;24.08;;;5.40;99.90;;;;;;5096470;28;20028;-68
2021/03/07 07:35:16;;;;;;;33.72;24.92;;;5.40;99.90;;;;;;5097606;28;20103;-68
2021/03/07 07:37:50;;;;;;;37.88;25.13;;;5.80;99.90;;;;;;5096288;28;20024;-68
2021/03/07 07:40:16;;;;;;;31.40;24.20;;;6.10;99.90;;;;;;5096878;28;20044;-68
2021/03/07 07:42:56;;;;;;;33.80;23.48;;;6.80;99.90;;;;;;5097421;28;20120;-68
2021/03/07 07:45:22;;;;;;;31.50;23.70;;;7.30;99.90;;;;;;5096877;28;20073;-68
2021/03/07 07:47:49;;;;;;;36.47;22.40;;;7.90;99.90;;;;;;5097068;28;20377;-69
2021/03/07 07:53:29;;;;;;;34.80;24.20;;;7.50;99.90;;;;;;5071616;28;20403;-68
2021/03/07 07:55:57;;;;;;;35.05;24.17;;;6.90;99.90;;;;;;5071080;28;20020;-68
2021/03/07 07:58:43;;;;;;;34.50;24.80;;;6.90;99.90;;;;;;5069609;28;20067;-69
2021/03/07 08:01:12;;;;;;;31.83;23.42;;;6.70;99.90;;;;;;5070978;28;20099;-68
2021/03/07 08:03:40;;;;;;;31.92;23.85;;;6.50;99.90;;;;;;5071114;28;20029;-68
2021/03/07 08:06:08;;;;;;;33.50;24.13;;;6.60;99.90;;;;;;5071167;28;20370;-68
2021/03/07 08:08:39;;;;;;;33.72;24.08;;;6.60;99.90;;;;;;5071089;28;20021;-68
2021/03/07 08:11:08;;;;;;;33.17;24.05;;;7.20;99.90;;;;;;5069347;28;20017;-69
2021/03/07 08:16:13;;;;;;;33.08;24.10;;;7.10;99.90;;;;;;5091880;28;20398;-69
2021/03/07 08:18:55;;;;;;;31.05;23.77;;;6.90;99.90;;;;;;5091560;28;20052;-68
2021/03/07 08:21:23;;;;;;;29.40;23.15;;;7.20;99.90;;;;;;5091279;28;20050;-69
2021/03/07 08:24:03;;;;;;;34.28;25.15;;;7.20;99.90;;;;;;5089646;28;20016;-69
2021/03/07 08:26:51;;;;;;;33.40;23.63;;;6.80;99.90;;;;;;5090351;28;20013;-69
2021/03/07 08:29:37;;;;;;;32.33;24.23;;;6.50;99.90;;;;;;5091078;28;20040;-69
2021/03/07 08:32:31;;;;;;;35.47;23.50;;;6.20;99.90;;;;;;5091322;28;20074;-69
2021/03/07 08:34:59;;;;;;;;;;;5.30;99.90;;;;;;5090087;28;20056;-68
2021/03/07 08:37:25;;;;;;;35.15;24.95;;;5.30;99.90;;;;;;5090725;28;19908;-69
2021/03/07 08:40:29;;;;;;;38.92;25.83;;;5.00;99.90;;;;;;5072729;28;20071;-69
2021/03/07 08:42:57;;;;;;;33.50;24.65;;;4.90;99.90;;;;;;5089320;28;20056;-69
2021/03/07 08:45:30;;;;;;;33.55;24.95;;;4.90;99.90;;;;;;5089648;28;20024;-68
2021/03/07 08:47:57;;;;;;;;;;;4.70;99.90;;;;;;5091479;28;20465;-68
2021/03/07 08:50:24;;;;;;;36.80;24.33;;;4.90;99.90;;;;;;5091019;28;19991;-69
2021/03/07 08:52:50;;;;;;;37.65;24.48;;;4.60;99.90;;;;;;5089119;28;20104;-68
2021/03/07 08:55:16;;;;;;;35.42;25.25;;;4.40;99.90;;;;;;5090533;28;20111;-68
2021/03/07 08:57:45;;;;;;;37.45;26.80;;;4.30;99.90;;;;;;5090308;28;20035;-69
2021/03/07 09:00:12;;;;;;;42.10;26.73;;;4.30;99.90;;;;;;5089032;28;20020;-69
2021/03/07 09:02:38;;;;;;;37.35;23.92;;;4.50;99.90;;;;;;5090764;28;20111;-68
2021/03/07 09:05:07;;;;;;;32.22;23.45;;;4.20;99.90;;;;;;5090484;28;20108;-69
2021/03/07 09:07:33;;;;;;;36.40;23.67;;;4.30;99.90;;;;;;5089454;28;20115;-69
2021/03/07 09:10:00;;;;;;;39.67;24.77;;;4.20;99.90;;;;;;5090360;28;20103;-69
2021/03/07 09:12:25;;;;;;;36.33;24.58;;;4.20;99.90;;;;;;5090630;28;20031;-69
2021/03/07 09:14:51;;;;;;;39.72;26.35;;;4.50;99.90;;;;;;5071925;28;20040;-69
2021/03/07 09:17:20;;;;;;;39.67;23.85;;;4.50;99.90;;;;;;5088762;28;20110;-68
2021/03/07 09:19:46;;;;;;;36.15;25.23;;;4.40;99.90;;;;;;5090141;28;20021;-68
2021/03/07 09:22:28;;;;;;;34.63;23.50;;;4.40;99.90;;;;;;5090359;28;20095;-69
2021/03/07 09:24:57;;;;;;;42.20;25.35;;;4.30;99.90;;;;;;5089778;28;20111;-69
2021/03/07 09:27:25;;;;;;;38.60;26.23;;;4.20;99.90;;;;;;5059868;28;20025;-69
2021/03/07 09:29:57;;;;;;;40.72;28.77;;;4.30;99.90;;;;;;5076187;28;20021;-69
2021/03/07 09:32:28;;;;;;;40.33;25.58;;;4.40;99.90;;;;;;5076722;28;20461;-68
2021/03/07 09:34:54;;;;;;;39.30;27.58;;;4.40;99.90;;;;;;5076573;28;20531;-68
2021/03/07 09:37:20;;;;;;;41.08;26.50;;;4.50;99.90;;;;;;5076603;28;20016;-68
2021/03/07 09:39:47;;;;;;;38.35;25.73;;;4.60;99.90;;;;;;5076562;28;20024;-68
2021/03/07 09:42:13;;;;;;;38.55;24.80;;;4.70;99.90;;;;;;5074726;28;20435;-69
2021/03/07 09:44:40;;;;;;;40.22;24.10;;;4.90;99.90;;;;;;5076190;28;20024;-69
2021/03/07 09:47:07;;;;;;;31.13;22.38;;;5.50;99.90;;;;;;5074982;28;20453;-69
2021/03/07 09:49:33;;;;;;;32.60;22.13;;;6.20;99.90;;;;;;5076410;28;20115;-69
2021/03/07 09:51:59;;;;;;;32.05;21.75;;;6.30;99.90;;;;;;5076354;28;20462;-69
2021/03/07 09:54:26;;;;;;;32.85;22.05;;;6.60;99.90;;;;;;5074415;28;20131;-69
2021/03/07 09:56:53;;;;;;;29.80;21.02;;;6.60;99.90;;;;;;5075131;28;20021;-69
2021/03/07 09:59:24;;;;;;;29.83;20.77;;;7.10;99.90;;;;;;5076231;28;20409;-69
2021/03/07 10:02:00;;;;;;;28.58;19.27;;;7.40;99.90;;;;;;5076177;28;20158;-69
2021/03/07 10:04:45;;;;;;;24.50;18.33;;;7.80;99.90;;;;;;5074349;28;20077;-69
2021/03/07 10:10:11;;;;;;;18.15;12.50;;;8.10;99.90;;;;;;5111004;27;20389;-69
2021/03/07 10:12:43;;;;;;;20.45;11.02;;;8.10;99.90;;;;;;5111378;28;20027;-68
2021/03/07 10:15:11;;;;;;;10.18;7.95;;;8.40;99.90;;;;;;5094272;28;20051;-69
2021/03/07 10:17:39;;;;;;;11.27;7.72;;;8.90;99.90;;;;;;5111834;28;20476;-69
2021/03/07 10:20:07;;;;;;;12.00;6.93;;;9.40;99.90;;;;;;5111547;28;20020;-69
2021/03/07 10:22:39;;;;;;;10.88;7.30;;;9.30;99.90;;;;;;5111755;28;20016;-69
2021/03/07 10:25:06;;;;;;;12.52;6.88;;;8.10;99.90;;;;;;5111433;28;20012;-68
2021/03/07 10:27:32;;;;;;;10.45;5.38;;;9.30;99.90;;;;;;5111000;28;20494;-69
2021/03/07 10:29:58;;;;;;;8.60;4.43;;;9.20;99.90;;;;;;5111658;28;20020;-69
2021/03/07 10:32:24;;;;;;;8.15;4.60;;;9.10;99.90;;;;;;5109751;28;20031;-69
2021/03/07 10:34:52;;;;;;;8.05;4.20;;;8.70;99.90;;;;;;5111212;28;20484;-69
2021/03/07 10:37:34;;;;;;;7.55;4.25;;;7.80;99.90;;;;;;5111180;28;20020;-68
2021/03/07 10:40:00;;;;;;;11.35;4.70;;;8.50;99.90;;;;;;5111140;28;20051;-69
2021/03/07 10:42:35;;;;;;;9.07;5.38;;;8.20;99.90;;;;;;5111386;28;20062;-68
2021/03/07 10:45:22;;;;;;;10.27;4.72;;;8.20;99.90;;;;;;5110775;28;20080;-69
2021/03/07 10:48:09;;;;;;;7.95;4.15;;;8.40;99.90;;;;;;5110650;28;20098;-69
2021/03/07 10:50:37;;;;;;;6.03;4.38;;;8.50;99.90;;;;;;5110643;28;20032;-69
2021/03/07 10:53:03;;;;;;;8.65;4.75;;;8.90;99.90;;;;;;5111171;28;20065;-69
2021/03/07 10:55:29;;;;;;;9.43;5.10;;;8.60;99.90;;;;;;5111147;28;20078;-69
2021/03/07 10:57:54;;;;;;;7.75;4.78;;;7.50;99.90;;;;;;5111077;28;20031;-69
2021/03/07 11:00:21;;;;;;;6.90;5.35;;;6.70;99.90;;;;;;5110777;28;20032;-68
2021/03/07 11:02:47;;;;;;;7.07;5.22;;;6.20;99.90;;;;;;5111012;28;20453;-69
2021/03/07 11:05:13;;;;;;;9.90;5.75;;;6.70;99.90;;;;;;5110952;28;20106;-69
2021/03/07 11:07:40;;;;;;;7.78;4.72;;;6.90;99.90;;;;;;5109415;28;20039;-69
2021/03/07 11:10:08;;;;;;;6.63;4.82;;;7.20;99.90;;;;;;5110293;28;20024;-69
2021/03/07 11:12:34;;;;;;;7.22;4.57;;;7.70;99.90;;;;;;5110235;28;20020;-69
2021/03/07 11:15:00;;;;;;;8.18;5.15;;;7.50;99.90;;;;;;5109263;28;20020;-69
2021/03/07 11:17:25;;;;;;;7.95;4.88;;;7.60;99.90;;;;;;5110168;28;20068;-69
2021/03/07 11:19:51;;;;;;;6.15;4.45;;;7.30;99.90;;;;;;5104369;28;20108;-69
2021/03/07 11:22:16;;;;;;;4.05;3.60;;;8.10;99.90;;;;;;5095283;28;20023;-69
2021/03/07 11:24:42;;;;;;;6.18;3.70;;;9.10;99.90;;;;;;5096910;28;20093;-69
2021/03/07 11:27:08;;;;;;;6.78;4.13;;;9.00;99.90;;;;;;5095480;28;20482;-69
2021/03/07 11:29:33;;;;;;;7.90;4.20;;;8.30;99.90;;;;;;5095275;28;20035;-69
2021/03/07 11:31:59;;;;;;;7.38;4.35;;;7.90;99.90;;;;;;5096590;28;20028;-69
2021/03/07 11:34:24;;;;;;;7.97;4.50;;;7.10;99.90;;;;;;5096250;28;20028;-69
2021/03/07 11:36:50;;;;;;;8.27;4.78;;;6.90;99.90;;;;;;5096465;28;20059;-69
2021/03/07 11:39:15;;;;;;;7.63;4.95;;;6.70;99.90;;;;;;5096696;28;20032;-68
2021/03/07 11:41:41;;;;;;;7.07;4.82;;;7.00;99.90;;;;;;5096599;28;20042;-68
2021/03/07 11:44:07;;;;;;;7.68;4.32;;;6.80;99.90;;;;;;5095441;28;20042;-69
2021/03/07 11:46:33;;;;;;;7.05;4.75;;;6.80;99.90;;;;;;5096249;28;20032;-69
2021/03/07 11:48:58;;;;;;;7.75;5.13;;;7.10;99.90;;;;;;5096482;28;20545;-70
2021/03/07 11:51:24;;;;;;;7.18;4.65;;;7.10;99.90;;;;;;5096403;28;20481;-69
2021/03/07 11:53:49;;;;;;;12.70;5.65;;;6.90;99.90;;;;;;5096350;28;20024;-67
2021/03/07 11:56:15;;;;;;;9.43;5.50;;;6.40;99.90;;;;;;5096348;28;20063;-67
2021/03/07 11:58:40;;;;;;;7.65;4.70;;;6.70;99.90;;;;;;5094495;28;20085;-67
2021/03/07 12:01:06;;;;;;;7.47;4.22;;;6.70;99.90;;;;;;5095965;28;20032;-69
2021/03/07 12:03:33;;;;;;;6.90;4.03;;;7.00;99.90;;;;;;5094810;28;20029;-69
2021/03/07 12:05:58;;;;;;;8.70;4.40;;;7.20;99.90;;;;;;5094759;28;20020;-68
2021/03/07 12:08:24;;;;;;;9.25;5.05;;;6.60;99.90;;;;;;5095585;28;20067;-68
2021/03/07 12:10:49;;;;;;;4.90;3.88;;;6.00;99.90;;;;;;5096106;28;20089;-69
2021/03/07 12:13:15;;;;;;;7.40;3.88;;;6.10;99.90;;;;;;5096050;28;20085;-68
2021/03/07 12:15:43;;;;;;;6.03;3.58;;;6.20;99.90;;;;;;5096023;28;20028;-69
2021/03/07 12:18:09;;;;;;;4.10;3.40;;;6.10;99.90;;;;;;5094695;28;20039;-68
2021/03/07 12:20:35;;;;;;;4.65;3.03;;;6.40;99.90;;;;;;5095775;28;20027;-67
2021/03/07 12:23:00;;;;;;;4.75;3.22;;;6.60;99.90;;;;;;5095589;28;20126;-68
2021/03/07 12:25:26;;;;;;;4.75;3.55;;;6.60;99.90;;;;;;5095795;28;20059;-69
2021/03/07 12:27:51;;;;;;;4.00;2.78;;;6.60;99.90;;;;;;5095668;28;20020;-69
2021/03/07 12:30:17;;;;;;;3.30;3.00;;;6.80;99.90;;;;;;5095416;28;20530;-69
2021/03/07 12:32:43;;;;;;;5.10;2.50;;;6.90;99.90;;;;;;5094377;28;20024;-69
2021/03/07 12:35:09;;;;;;;4.60;3.22;;;6.90;99.90;;;;;;5095580;28;20039;-69
2021/03/07 12:37:35;;;;;;;4.97;3.05;;;6.60;99.90;;;;;;5094412;28;20028;-68
2021/03/07 12:40:00;;;;;;;3.38;2.88;;;6.40;99.90;;;;;;5095518;28;20366;-69
2021/03/07 12:42:26;;;;;;;6.93;2.92;;;6.30;99.90;;;;;;5095109;28;20097;-69
2021/03/07 12:44:53;;;;;;;5.55;3.05;;;6.40;99.90;;;;;;5095134;28;20031;-68
2021/03/07 12:47:19;;;;;;;3.95;3.17;;;6.80;99.90;;;;;;5095403;28;20099;-68
2021/03/07 12:49:45;;;;;;;5.50;2.88;;;7.00;99.90;;;;;;5095018;28;20027;-69